Time;durP1;ratioP1;P1;durP2;ratioP2;P2;SDS_P1;SDS_P2;PMS_P1;PMS_P2;Temp;Humidity;BMP_temperature;BMP_pressure;BME280_temperature;BME280_humidity;BME280_pressure;Samples;Min_cycle;Max_cycle;Signal;HPM_P1;HPM_P2
2022/10/16 00:01:30;;;;;;;8.35;4.00;;;;;;;13.84;75.29;100948.81;5029150;28;20492;-66
2022/10/16 00:03:57;;;;;;;7.53;3.92;;;;;;;13.82;75.26;100940.72;5031175;28;20084;-66
2022/10/16 00:06:23;;;;;;;6.63;3.58;;;;;;;13.79;75.44;100932.03;5031102;28;20136;-66
2022/10/16 00:08:49;;;;;;;7.43;3.80;;;;;;;13.80;75.21;100934.59;5031469;28;20457;-66
2022/10/16 00:11:24;;;;;;;7.18;3.95;;;;;;;13.82;75.44;100926.75;5031355;28;20068;-66
2022/10/16 00:13:51;;;;;;;10.75;4.18;;;;;;;13.83;75.46;100936.81;5031098;28;20041;-66
2022/10/16 00:16:18;;;;;;;6.47;3.78;;;;;;;13.81;75.40;100927.88;5029552;28;20026;-67
2022/10/16 00:18:43;;;;;;;8.60;3.60;;;;;;;13.82;75.17;100935.13;5031142;28;20385;-66
2022/10/16 00:21:12;;;;;;;4.75;3.55;;;;;;;13.82;75.12;100931.50;5027999;28;20029;-66
2022/10/16 00:23:38;;;;;;;5.88;3.72;;;;;;;13.82;75.52;100928.72;5027135;28;20021;-66
2022/10/16 00:26:06;;;;;;;4.68;3.20;;;;;;;13.84;75.07;100938.50;5016460;28;20033;-66
2022/10/16 00:28:32;;;;;;;7.13;4.07;;;;;;;13.81;75.36;100933.47;5012677;28;20462;-66
2022/10/16 00:30:58;;;;;;;7.72;3.80;;;;;;;13.75;75.25;100942.91;5025945;28;20073;-66
2022/10/16 00:33:24;;;;;;;5.88;3.47;;;;;;;13.70;75.61;100937.31;5020172;28;20112;-66
2022/10/16 00:35:50;;;;;;;4.88;3.20;;;;;;;13.71;75.55;100936.19;5019507;28;20385;-66
2022/10/16 00:38:16;;;;;;;4.75;3.05;;;;;;;13.72;75.53;100933.16;5030602;28;20028;-66
2022/10/16 00:40:41;;;;;;;7.20;3.45;;;;;;;13.73;75.72;100939.56;5028982;28;20143;-66
2022/10/16 00:43:39;;;;;;;6.00;3.63;;;;;;;13.74;75.49;100938.44;5031258;28;20104;-66
2022/10/16 00:46:12;;;;;;;4.38;3.13;;;;;;;13.69;75.71;100949.59;5011270;28;20084;-66
2022/10/16 00:48:38;;;;;;;5.45;3.92;;;;;;;13.71;75.74;100938.97;5011993;28;20018;-66
2022/10/16 00:51:05;;;;;;;7.05;3.88;;;;;;;13.66;75.90;100945.38;5028800;28;20396;-66
2022/10/16 00:53:32;;;;;;;6.43;4.10;;;;;;;13.65;75.56;100940.94;5030685;28;20380;-65
2022/10/16 00:55:58;;;;;;;5.60;3.90;;;;;;;13.63;75.80;100939.50;5031157;28;20399;-66
2022/10/16 00:58:23;;;;;;;5.47;3.78;;;;;;;13.68;75.38;100947.91;5029569;28;20028;-66
2022/10/16 01:00:48;;;;;;;8.32;3.67;;;;;;;13.69;75.41;100946.81;5028795;28;20142;-66
2022/10/16 01:03:36;;;;;;;6.57;3.47;;;;;;;13.70;75.72;100940.09;5029532;28;20030;-66
2022/10/16 01:06:17;;;;;;;3.88;3.20;;;;;;;13.68;75.51;100939.56;5024749;28;20035;-66
2022/10/16 01:09:01;;;;;;;5.90;3.20;;;;;;;13.66;75.66;100928.66;5029519;28;20021;-66
2022/10/16 01:11:48;;;;;;;5.28;3.40;;;;;;;13.67;75.68;100926.69;5028302;28;20060;-66
2022/10/16 01:14:32;;;;;;;4.82;2.90;;;;;;;13.65;75.88;100931.72;5032265;28;95521;-66
2022/10/16 01:17:12;;;;;;;4.57;2.60;;;;;;;13.67;75.60;100932.28;5038125;28;20501;-66
2022/10/16 01:20:01;;;;;;;4.97;3.05;;;;;;;13.64;75.72;100930.06;5029686;28;20041;-66
2022/10/16 01:22:50;;;;;;;5.85;2.83;;;;;;;13.59;75.55;100939.22;5028957;28;20025;-66
2022/10/16 01:25:30;;;;;;;4.13;2.60;;;;;;;13.60;75.57;100952.06;5026087;28;22152;-66
2022/10/16 01:27:57;;;;;;;4.80;2.83;;;;;;;13.51;75.79;100948.94;5011496;28;20040;-66
2022/10/16 01:30:32;;;;;;;7.05;3.33;;;;;;;13.56;75.82;100944.47;5031169;28;20140;-66
2022/10/16 01:33:23;;;;;;;5.28;2.85;;;;;;;13.51;76.05;100943.34;5026147;28;20090;-67
2022/10/16 01:35:54;;;;;;;5.85;2.90;;;;;;;13.48;76.26;100943.09;5027890;28;20037;-66
2022/10/16 01:38:31;;;;;;;6.00;2.58;;;;;;;13.48;76.53;100938.34;5031127;28;20029;-66
2022/10/16 01:41:03;;;;;;;5.57;3.00;;;;;;;13.49;76.38;100942.78;5018060;28;20030;-66
2022/10/16 01:43:34;;;;;;;;;;;;;;;13.63;75.50;100950.66;5021032;28;20024;-66
2022/10/16 01:46:00;;;;;;;4.60;2.97;;;;;;;13.49;76.01;100953.94;5030949;28;20364;-67
2022/10/16 01:48:26;;;;;;;5.07;2.80;;;;;;;13.50;76.18;100938.88;5029451;28;20040;-66
2022/10/16 01:51:04;;;;;;;4.18;2.80;;;;;;;13.49;76.07;100931.66;5029810;28;20461;-66
2022/10/16 01:53:32;;;;;;;3.03;2.60;;;;;;;13.49;76.32;100934.44;5031216;28;20061;-67
2022/10/16 01:56:00;;;;;;;4.57;2.42;;;;;;;13.48;76.11;100937.50;5024793;28;20559;-66
2022/10/16 01:58:27;;;;;;;4.20;2.40;;;;;;;13.48;76.24;100931.94;5029205;28;20049;-66
2022/10/16 02:00:54;;;;;;;4.63;2.55;;;;;;;13.44;76.50;100940.00;5027057;28;20096;-66
2022/10/16 02:03:20;;;;;;;5.18;2.42;;;;;;;13.49;76.39;100936.38;5031092;28;20022;-66
2022/10/16 02:05:55;;;;;;;4.32;2.50;;;;;;;13.47;76.17;100939.44;5029596;28;20028;-66
2022/10/16 02:08:23;;;;;;;6.25;2.67;;;;;;;13.42;76.65;100939.41;5030320;28;20034;-66
2022/10/16 02:10:48;;;;;;;4.18;2.75;;;;;;;13.40;76.63;100958.38;5029482;28;20059;-66
2022/10/16 02:13:21;;;;;;;5.72;2.30;;;;;;;13.40;76.60;100952.78;5028386;28;20048;-67
2022/10/16 02:15:46;;;;;;;6.13;2.60;;;;;;;13.47;76.62;100946.97;5029009;28;20068;-67
2022/10/16 02:18:12;;;;;;;4.15;2.30;;;;;;;13.46;76.42;100948.06;5029906;28;20057;-67
2022/10/16 02:20:51;;;;;;;3.20;2.45;;;;;;;13.43;76.53;100943.88;5030808;28;20033;-67
2022/10/16 02:23:28;;;;;;;3.95;2.40;;;;;;;13.44;76.68;100942.78;5028714;28;20022;-67
2022/10/16 02:25:55;;;;;;;3.67;2.13;;;;;;;13.42;76.18;100933.81;5017703;28;20053;-67
2022/10/16 02:28:27;;;;;;;4.72;2.30;;;;;;;13.45;76.24;100938.03;5010907;28;20062;-67
2022/10/16 02:31:02;;;;;;;4.90;2.30;;;;;;;13.44;76.35;100942.78;5012047;28;20048;-67
2022/10/16 02:33:30;;;;;;;3.22;2.20;;;;;;;13.44;75.99;100939.13;5028557;28;20091;-67
2022/10/16 02:35:57;;;;;;;5.55;2.25;;;;;;;13.46;76.23;100934.97;5034295;28;20031;-67
2022/10/16 02:38:25;;;;;;;5.93;2.10;;;;;;;13.38;76.17;100949.41;5033762;28;20033;-67
2022/10/16 02:40:50;;;;;;;3.53;2.33;;;;;;;13.40;76.25;100958.38;5021023;28;20064;-67
2022/10/16 02:43:16;;;;;;;4.22;2.20;;;;;;;13.43;75.98;100952.22;5017955;28;20022;-67
2022/10/16 02:45:41;;;;;;;3.88;2.20;;;;;;;13.42;76.26;100944.16;5033070;28;20423;-67
2022/10/16 02:48:07;;;;;;;3.58;1.90;;;;;;;13.39;76.27;100948.31;5033218;28;20045;-67
2022/10/16 02:50:32;;;;;;;2.17;1.90;;;;;;;13.42;76.31;100946.94;5030161;28;20025;-67
2022/10/16 02:52:57;;;;;;;4.05;2.30;;;;;;;13.39;76.18;100945.50;5030861;28;20480;-67
2022/10/16 02:55:23;;;;;;;4.18;2.17;;;;;;;13.37;76.36;100938.56;5032751;28;20068;-67
2022/10/16 02:57:48;;;;;;;2.53;1.92;;;;;;;13.40;76.07;100932.41;5031900;28;20087;-67
2022/10/16 03:00:16;;;;;;;5.30;2.60;;;;;;;13.36;76.20;100936.84;5031862;28;21011;-67
2022/10/16 03:02:42;;;;;;;3.28;2.00;;;;;;;13.32;76.20;100947.69;5032890;28;20025;-67
2022/10/16 03:05:08;;;;;;;4.00;1.90;;;;;;;13.37;75.98;100955.28;5032799;28;20384;-67
2022/10/16 03:07:33;;;;;;;3.15;2.00;;;;;;;13.36;76.42;100945.22;5032078;28;20476;-66
2022/10/16 03:10:00;;;;;;;4.90;2.20;;;;;;;13.34;76.56;100947.44;5032711;28;20040;-67
2022/10/16 03:12:26;;;;;;;3.72;1.95;;;;;;;13.33;76.53;100954.97;5032492;28;20365;-67
2022/10/16 03:14:52;;;;;;;3.30;1.80;;;;;;;13.35;76.23;100954.69;5031762;28;20132;-67
2022/10/16 03:17:17;;;;;;;5.38;2.00;;;;;;;13.33;76.17;100945.78;5033366;28;20148;-67
2022/10/16 03:19:42;;;;;;;5.35;1.65;;;;;;;13.30;76.56;100963.88;5030970;28;20100;-67
2022/10/16 03:22:08;;;;;;;2.83;1.83;;;;;;;13.28;76.69;100974.44;5031728;28;20087;-67
2022/10/16 03:24:33;;;;;;;3.05;1.67;;;;;;;13.23;76.89;100955.72;5032691;28;20033;-67
2022/10/16 03:26:58;;;;;;;4.55;2.17;;;;;;;13.22;76.66;100975.50;5031432;28;20025;-67
2022/10/16 03:29:25;;;;;;;4.15;1.90;;;;;;;13.21;77.03;100977.44;5032914;28;20034;-67
2022/10/16 03:31:50;;;;;;;6.13;1.85;;;;;;;13.24;76.63;100981.66;5032555;28;20025;-66
2022/10/16 03:34:16;;;;;;;3.72;2.10;;;;;;;13.21;76.88;100988.59;5032766;28;20025;-67
2022/10/16 03:36:41;;;;;;;2.30;1.65;;;;;;;13.22;77.03;100984.69;5030040;28;20112;-67
2022/10/16 03:39:06;;;;;;;2.03;1.67;;;;;;;13.21;77.10;100982.19;5021038;28;20038;-67
2022/10/16 03:41:32;;;;;;;2.20;1.48;;;;;;;13.21;76.71;100982.19;5011098;28;20026;-67
2022/10/16 03:43:57;;;;;;;3.22;1.73;;;;;;;13.23;77.23;100996.69;5031906;28;20047;-67
2022/10/16 03:46:22;;;;;;;2.42;1.60;;;;;;;13.19;77.09;100989.94;5030767;28;20022;-67
2022/10/16 03:48:47;;;;;;;3.72;1.55;;;;;;;13.21;77.08;100996.13;5031420;28;20043;-67
2022/10/16 03:51:13;;;;;;;2.55;1.90;;;;;;;13.23;77.26;100996.69;5024945;28;20038;-67
2022/10/16 03:53:38;;;;;;;3.20;1.67;;;;;;;13.20;77.30;100991.63;5023814;28;20455;-67
2022/10/16 03:56:04;;;;;;;2.55;1.60;;;;;;;13.20;77.35;100994.41;5032702;28;20032;-67
2022/10/16 03:58:29;;;;;;;2.67;1.70;;;;;;;13.20;77.51;100998.06;5032319;28;20388;-67
2022/10/16 04:00:54;;;;;;;3.50;1.77;;;;;;;13.19;77.76;100996.38;5030313;28;20025;-67
2022/10/16 04:03:21;;;;;;;5.55;1.85;;;;;;;13.22;77.24;101004.19;5032417;28;20026;-67
2022/10/16 04:05:46;;;;;;;4.35;1.70;;;;;;;13.23;77.38;101002.28;5030137;28;20061;-67
2022/10/16 04:08:11;;;;;;;2.72;1.70;;;;;;;13.21;77.32;100996.13;5031652;28;20049;-67
2022/10/16 04:10:37;;;;;;;4.50;1.88;;;;;;;13.23;77.02;101000.31;5031691;28;20036;-67
2022/10/16 04:13:02;;;;;;;2.95;1.60;;;;;;;13.26;76.98;101002.59;5031645;28;20049;-67
2022/10/16 04:15:27;;;;;;;3.92;2.10;;;;;;;13.26;77.58;101004.53;5029113;28;20052;-67
2022/10/16 04:17:52;;;;;;;5.47;2.28;;;;;;;13.24;77.59;100999.25;5032494;28;20029;-67
2022/10/16 04:20:18;;;;;;;4.38;2.30;;;;;;;13.20;77.40;101003.63;5030833;28;20029;-67
2022/10/16 04:22:44;;;;;;;6.10;2.10;;;;;;;13.14;77.67;101010.25;5031561;28;20033;-67
2022/10/16 04:25:11;;;;;;;3.33;1.98;;;;;;;13.11;77.92;101009.97;5032209;28;20031;-67
2022/10/16 04:27:36;;;;;;;2.42;1.90;;;;;;;13.12;78.17;101006.06;5030211;28;20533;-67
2022/10/16 04:30:02;;;;;;;3.00;1.70;;;;;;;13.12;78.30;101006.88;5030608;28;20033;-67
2022/10/16 04:32:27;;;;;;;2.90;1.85;;;;;;;13.15;78.12;100999.94;5031625;28;20033;-67
2022/10/16 04:34:53;;;;;;;3.97;2.20;;;;;;;13.15;78.13;101008.31;5030591;28;20033;-67
2022/10/16 04:37:18;;;;;;;2.70;2.50;;;;;;;13.21;77.57;101013.66;5031287;28;20120;-67
2022/10/16 04:39:44;;;;;;;4.78;1.98;;;;;;;13.21;78.20;101015.63;5031705;28;20030;-67
2022/10/16 04:42:10;;;;;;;7.03;2.47;;;;;;;13.22;78.04;101017.28;5029487;28;20037;-66
2022/10/16 04:44:35;;;;;;;3.38;2.10;;;;;;;13.24;78.22;101017.88;5029335;28;20433;-67
2022/10/16 04:47:00;;;;;;;5.93;2.35;;;;;;;13.24;77.85;101032.69;5030774;28;21349;-67
2022/10/16 04:49:26;;;;;;;6.35;2.42;;;;;;;13.24;77.68;101038.25;5030090;28;20026;-67
2022/10/16 04:51:51;;;;;;;7.15;3.30;;;;;;;13.25;78.00;101030.75;5011966;28;20030;-67
2022/10/16 04:54:16;;;;;;;3.55;2.22;;;;;;;13.27;77.93;101031.28;5026432;28;20028;-66
2022/10/16 04:56:50;;;;;;;3.33;2.20;;;;;;;13.27;77.96;101037.72;5014544;28;20381;-66
2022/10/16 04:59:16;;;;;;;2.20;1.75;;;;;;;13.27;77.35;101042.44;5025872;28;20029;-67
2022/10/16 05:01:42;;;;;;;7.22;2.30;;;;;;;13.26;77.67;101046.34;5029202;28;20075;-66
2022/10/16 05:04:07;;;;;;;3.53;2.13;;;;;;;13.23;78.15;101049.66;5029053;28;20037;-66
2022/10/16 05:06:32;;;;;;;4.25;2.30;;;;;;;13.23;78.13;101058.88;5031425;28;20033;-66
2022/10/16 05:08:58;;;;;;;3.05;2.20;;;;;;;13.27;78.18;101059.16;5031116;28;20129;-66
2022/10/16 05:11:23;;;;;;;3.53;2.38;;;;;;;13.27;78.08;101068.38;5024378;28;20128;-66
2022/10/16 05:13:48;;;;;;;5.78;2.30;;;;;;;13.30;77.64;101068.97;5030427;28;20049;-67
2022/10/16 05:16:14;;;;;;;6.32;2.83;;;;;;;13.27;77.55;101068.38;5029791;28;20025;-66
2022/10/16 05:18:39;;;;;;;3.95;2.50;;;;;;;13.24;77.75;101063.34;5028084;28;20128;-66
2022/10/16 05:21:05;;;;;;;5.82;2.28;;;;;;;13.23;77.70;101058.88;5031348;28;20049;-66
2022/10/16 05:23:31;;;;;;;7.32;2.42;;;;;;;13.24;78.00;101068.06;5029250;28;20449;-66
2022/10/16 05:25:58;;;;;;;3.53;2.30;;;;;;;13.21;78.01;101063.84;5029710;28;20109;-66
2022/10/16 05:28:24;;;;;;;3.45;2.17;;;;;;;13.20;78.41;101066.88;5029661;28;20029;-67
2022/10/16 05:30:50;;;;;;;4.55;2.47;;;;;;;13.18;78.23;101072.72;5026502;28;20029;-66
2022/10/16 05:33:16;;;;;;;4.93;2.20;;;;;;;13.19;78.16;101071.63;5030106;28;20032;-66
2022/10/16 05:35:41;;;;;;;2.70;1.90;;;;;;;13.20;78.49;101075.25;5028978;28;20060;-66
2022/10/16 05:38:06;;;;;;;6.13;2.25;;;;;;;13.20;78.37;101080.81;5029758;28;20025;-67
2022/10/16 05:40:32;;;;;;;2.67;2.33;;;;;;;13.21;77.95;101076.94;5030295;28;20032;-66
2022/10/16 05:42:57;;;;;;;3.60;2.00;;;;;;;13.21;78.46;101088.09;5030951;28;20156;-67
2022/10/16 05:45:22;;;;;;;6.45;2.17;;;;;;;13.22;78.17;101095.34;5031094;28;20109;-66
2022/10/16 05:47:48;;;;;;;3.72;2.40;;;;;;;13.23;78.01;101105.41;5027813;28;20036;-66
2022/10/16 05:50:13;;;;;;;4.70;2.20;;;;;;;13.21;77.95;101110.41;5026912;28;20056;-66
2022/10/16 05:52:38;;;;;;;4.90;2.15;;;;;;;13.20;78.34;101108.69;5029652;28;20083;-66
2022/10/16 05:55:04;;;;;;;5.55;2.13;;;;;;;13.19;78.54;101113.44;5028912;28;20110;-66
2022/10/16 05:57:30;;;;;;;4.10;2.00;;;;;;;13.19;78.60;101116.22;5031023;28;20492;-66
2022/10/16 05:59:55;;;;;;;4.68;2.50;;;;;;;13.19;78.37;101123.75;5029964;28;20115;-66
2022/10/16 06:02:20;;;;;;;6.40;2.65;;;;;;;13.17;78.15;101125.97;5029902;28;20412;-66
2022/10/16 06:04:46;;;;;;;3.92;2.25;;;;;;;13.19;78.45;101123.75;5029822;28;20030;-66
2022/10/16 06:07:11;;;;;;;3.45;2.30;;;;;;;13.16;78.54;101133.47;5032039;28;20029;-66
2022/10/16 06:09:36;;;;;;;5.07;2.25;;;;;;;13.20;78.62;101134.66;5032282;28;20026;-66
2022/10/16 06:12:02;;;;;;;7.07;2.42;;;;;;;13.20;78.40;101148.56;5032232;28;20457;-66
2022/10/16 06:14:27;;;;;;;6.85;2.25;;;;;;;13.18;78.47;101147.16;5033783;28;20049;-66
2022/10/16 06:16:52;;;;;;;7.10;2.58;;;;;;;13.19;78.58;101152.44;5030479;28;20021;-66
2022/10/16 06:19:18;;;;;;;4.38;2.58;;;;;;;13.20;78.21;101159.72;5037131;28;20036;-66
2022/10/16 06:21:44;;;;;;;4.93;2.30;;;;;;;13.18;78.67;101164.72;5033262;28;20457;-66
2022/10/16 06:24:09;;;;;;;4.22;2.50;;;;;;;13.15;78.62;101169.97;5033091;28;20022;-67
2022/10/16 06:26:35;;;;;;;7.35;2.33;;;;;;;13.19;78.19;101165.53;5033836;28;20373;-67
2022/10/16 06:29:00;;;;;;;5.60;2.22;;;;;;;13.21;78.80;101169.75;5031466;28;20040;-67
2022/10/16 06:31:30;;;;;;;6.88;3.00;;;;;;;13.20;78.29;101175.59;5034184;28;20090;-67
2022/10/16 06:33:56;;;;;;;4.45;2.33;;;;;;;13.24;78.27;101171.19;5034475;28;20025;-67
2022/10/16 06:36:21;;;;;;;5.65;2.38;;;;;;;13.21;78.53;101180.06;5026432;28;20026;-66
2022/10/16 06:38:46;;;;;;;4.82;2.53;;;;;;;13.21;78.42;101185.66;5029155;28;20037;-66
2022/10/16 06:41:15;;;;;;;3.83;2.55;;;;;;;13.20;78.57;101186.72;5030778;28;20024;-67
2022/10/16 06:43:40;;;;;;;4.38;2.30;;;;;;;13.21;78.63;101194.00;5018903;28;20087;-66
2022/10/16 06:46:09;;;;;;;6.28;2.28;;;;;;;13.19;78.89;101191.47;5026798;28;20421;-66
2022/10/16 06:48:35;;;;;;;5.00;2.40;;;;;;;13.18;79.05;101206.53;5018925;28;20022;-67
2022/10/16 06:51:13;;;;;;;3.95;2.22;;;;;;;13.20;78.70;101215.47;5024314;28;20136;-66
2022/10/16 06:53:41;;;;;;;5.47;2.33;;;;;;;13.23;78.83;101216.91;5027265;28;20408;-65
2022/10/16 06:56:12;;;;;;;3.95;2.40;;;;;;;13.23;78.59;101219.69;5031785;28;20025;-65
2022/10/16 06:58:37;;;;;;;6.30;2.35;;;;;;;13.26;78.91;101214.44;5030453;28;20083;-65
2022/10/16 07:01:04;;;;;;;4.63;2.17;;;;;;;13.23;78.99;101209.38;5027605;28;20017;-65
2022/10/16 07:03:29;;;;;;;8.98;2.35;;;;;;;13.25;78.82;101225.88;5032846;28;20017;-65
2022/10/16 07:05:55;;;;;;;5.25;2.50;;;;;;;13.26;78.73;101217.22;5031909;28;20499;-65
2022/10/16 07:08:20;;;;;;;6.05;2.90;;;;;;;13.27;78.65;101226.44;5033652;28;20033;-65
2022/10/16 07:10:45;;;;;;;4.72;2.30;;;;;;;13.24;78.98;101232.53;5026177;28;20041;-63
2022/10/16 07:13:13;;;;;;;3.80;2.20;;;;;;;13.26;79.50;101233.97;5030741;28;20022;-62
2022/10/16 07:15:39;;;;;;;3.53;2.22;;;;;;;13.24;79.39;101244.53;5018023;28;20088;-66
2022/10/16 07:18:04;;;;;;;3.45;2.70;;;;;;;13.27;79.63;101248.72;5031196;28;20450;-65
2022/10/16 07:20:29;;;;;;;3.25;2.50;;;;;;;13.28;79.15;101250.41;5017909;28;20104;-65
2022/10/16 07:22:54;;;;;;;8.85;3.78;;;;;;;13.34;79.20;101243.81;5033366;28;20030;-65
2022/10/16 07:25:20;;;;;;;6.82;4.10;;;;;;;13.32;79.41;101251.56;5032474;28;20022;-66
2022/10/16 07:27:45;;;;;;;10.10;4.80;;;;;;;13.32;79.87;101259.94;5019905;28;20060;-65
2022/10/16 07:30:10;;;;;;;6.78;4.18;;;;;;;13.37;79.81;101262.81;5016265;28;20029;-65
2022/10/16 07:32:36;;;;;;;10.82;5.07;;;;;;;13.42;79.61;101262.00;5031423;28;20037;-66
2022/10/16 07:35:01;;;;;;;8.57;3.55;;;;;;;13.43;79.47;101272.88;5030811;28;20025;-67
2022/10/16 07:37:27;;;;;;;4.70;3.08;;;;;;;13.50;79.50;101281.91;5032881;28;20113;-67
2022/10/16 07:39:52;;;;;;;3.80;2.63;;;;;;;13.58;79.35;101285.31;5031042;28;20489;-66
2022/10/16 07:42:17;;;;;;;6.35;3.13;;;;;;;13.67;79.50;101286.53;5017490;28;20561;-66
2022/10/16 07:44:43;;;;;;;5.90;3.05;;;;;;;13.74;79.09;101292.75;5014911;28;20036;-67
2022/10/16 07:47:08;;;;;;;4.45;2.22;;;;;;;13.82;78.76;101297.84;5025566;28;20041;-67
2022/10/16 07:49:33;;;;;;;8.10;3.50;;;;;;;13.92;79.08;101300.75;5031077;28;20030;-66
2022/10/16 07:51:59;;;;;;;5.15;2.67;;;;;;;13.96;78.23;101298.25;5032084;28;20029;-66
2022/10/16 07:54:24;;;;;;;4.95;2.65;;;;;;;14.08;77.92;101315.69;5030066;28;20477;-66
2022/10/16 07:56:49;;;;;;;3.75;2.17;;;;;;;14.15;77.57;101313.50;5031008;28;20025;-66
2022/10/16 07:59:14;;;;;;;7.53;2.28;;;;;;;14.20;77.98;101319.13;5032283;28;20070;-66
2022/10/16 08:01:42;;;;;;;6.60;2.03;;;;;;;14.31;77.75;101319.22;5030248;28;20025;-66
2022/10/16 08:04:08;;;;;;;3.55;2.33;;;;;;;14.35;77.36;101312.84;5029444;28;20052;-66
2022/10/16 08:06:36;;;;;;;6.28;3.65;;;;;;;14.46;76.93;101327.69;5030188;28;20029;-66
2022/10/16 08:09:03;;;;;;;7.07;3.83;;;;;;;14.55;76.80;101325.31;5028086;28;20037;-66
2022/10/16 08:11:28;;;;;;;7.43;4.63;;;;;;;14.63;75.98;101328.44;5032011;28;20057;-67
2022/10/16 08:13:53;;;;;;;6.28;3.97;;;;;;;14.69;75.79;101334.88;5030217;28;20134;-66
2022/10/16 08:16:19;;;;;;;6.60;3.88;;;;;;;14.79;75.82;101336.94;5025081;28;20033;-66
2022/10/16 08:18:45;;;;;;;5.50;2.90;;;;;;;14.90;75.62;101344.28;5032152;28;20500;-66
2022/10/16 08:21:16;;;;;;;8.48;2.78;;;;;;;14.97;75.00;101342.91;5031708;28;20112;-66
2022/10/16 08:23:42;;;;;;;6.15;3.03;;;;;;;15.08;75.10;101345.75;5026984;28;20025;-66
2022/10/16 08:26:08;;;;;;;4.10;2.20;;;;;;;15.16;74.85;101357.25;5031171;28;20143;-66
2022/10/16 08:28:35;;;;;;;6.88;2.63;;;;;;;15.29;74.53;101355.94;5028781;28;20036;-64
2022/10/16 08:31:07;;;;;;;5.00;2.50;;;;;;;15.37;74.03;101360.19;5031416;28;20065;-63
2022/10/16 08:33:34;;;;;;;3.72;1.77;;;;;;;15.42;73.94;101363.81;5031800;28;20055;-63
2022/10/16 08:36:00;;;;;;;5.25;2.17;;;;;;;15.51;73.42;101366.94;5022259;28;20470;-64
2022/10/16 08:38:25;;;;;;;13.13;2.72;;;;;;;15.60;73.46;101378.44;5011961;28;20030;-64
2022/10/16 08:40:50;;;;;;;10.10;2.17;;;;;;;15.68;73.12;101377.97;5017184;28;20021;-63
2022/10/16 08:43:31;;;;;;;3.90;1.98;;;;;;;15.79;73.14;101384.41;5030963;28;20481;-63
2022/10/16 08:46:28;;;;;;;7.45;2.03;;;;;;;15.89;72.89;101376.88;5026151;28;20034;-63
2022/10/16 08:48:58;;;;;;;5.82;2.08;;;;;;;16.03;71.84;101387.56;4988401;28;20581;-64
2022/10/16 08:51:27;;;;;;;6.40;1.98;;;;;;;16.12;71.17;101385.91;5019156;28;20377;-64
2022/10/16 08:53:58;;;;;;;4.65;2.00;;;;;;;16.16;71.28;101390.66;5022210;28;20047;-65
2022/10/16 08:56:25;;;;;;;4.93;1.92;;;;;;;16.22;70.72;101394.31;5011425;28;20060;-65
2022/10/16 08:58:52;;;;;;;4.57;1.88;;;;;;;16.24;69.93;101388.44;5011736;28;20033;-65
2022/10/16 09:01:22;;;;;;;5.97;2.03;;;;;;;16.34;70.61;101386.47;5027923;28;20163;-65
2022/10/16 09:04:09;;;;;;;6.47;1.83;;;;;;;16.45;70.48;101393.78;5024016;28;20042;-65
2022/10/16 09:06:44;;;;;;;5.80;1.83;;;;;;;16.54;69.31;101388.44;5022395;28;20116;-64
2022/10/16 09:09:15;;;;;;;6.38;2.40;;;;;;;16.59;68.97;101401.63;5027437;28;20040;-64
2022/10/16 09:11:53;;;;;;;4.57;1.65;;;;;;;16.66;68.92;101397.44;5026222;28;20091;-65
2022/10/16 09:15:01;;;;;;;4.53;1.40;;;;;;;16.73;69.36;101407.50;5023170;28;20057;-67
2022/10/16 09:17:35;;;;;;;6.43;2.00;;;;;;;16.86;68.87;101404.19;5022554;28;20041;-69
2022/10/16 09:20:27;;;;;;;7.57;1.80;;;;;;;16.97;68.44;101407.78;5028044;28;20117;-70
2022/10/16 09:23:13;;;;;;;3.83;1.55;;;;;;;17.09;68.22;101408.34;5028838;28;20531;-70
2022/10/16 09:25:41;;;;;;;4.50;1.67;;;;;;;17.14;66.83;101414.78;5030271;28;20101;-70
2022/10/16 09:28:09;;;;;;;5.50;1.70;;;;;;;17.23;66.53;101417.84;5016880;28;20033;-70
2022/10/16 09:30:34;;;;;;;9.40;1.60;;;;;;;17.29;66.35;101413.94;5030001;28;20029;-69
2022/10/16 09:33:00;;;;;;;7.70;2.00;;;;;;;17.39;66.22;101419.50;5024442;28;20087;-68
2022/10/16 09:35:41;;;;;;;4.93;1.50;;;;;;;17.45;66.81;101422.28;5026256;28;20065;-71
2022/10/16 09:38:07;;;;;;;4.00;1.40;;;;;;;17.55;65.37;101428.69;5026570;28;20104;-70
2022/10/16 09:40:36;;;;;;;7.50;2.00;;;;;;;17.48;64.47;101432.94;5029482;28;20366;-66
2022/10/16 09:43:16;;;;;;;6.18;1.52;;;;;;;17.36;65.02;101420.06;5022844;28;20092;-67
2022/10/16 09:45:41;;;;;;;5.38;1.70;;;;;;;17.34;65.31;101427.94;5029527;28;20044;-68
2022/10/16 09:48:19;;;;;;;11.05;2.10;;;;;;;17.45;65.69;101427.88;5032035;28;20493;-67
2022/10/16 09:50:55;;;;;;;5.20;1.67;;;;;;;17.42;65.23;101420.91;5033686;28;20034;-69
2022/10/16 09:53:22;;;;;;;8.13;1.73;;;;;;;17.37;64.54;101430.19;5032730;28;20742;-67
2022/10/16 09:55:53;;;;;;;7.85;1.70;;;;;;;17.40;64.48;101435.19;5027740;28;20106;-68
2022/10/16 09:58:21;;;;;;;7.63;1.88;;;;;;;17.43;64.10;101436.59;5029745;28;20038;-70
2022/10/16 10:00:53;;;;;;;7.05;1.92;;;;;;;17.45;63.58;101431.56;5024401;28;20065;-67
2022/10/16 10:03:35;;;;;;;6.40;1.73;;;;;;;17.36;65.15;101433.25;5032755;28;20116;-66
2022/10/16 10:06:16;;;;;;;11.90;2.00;;;;;;;17.20;64.60;101446.47;5032116;28;20074;-67
2022/10/16 10:08:52;;;;;;;8.60;2.47;;;;;;;17.14;64.41;101445.66;5028994;28;20044;-66
2022/10/16 10:11:17;;;;;;;9.05;2.47;;;;;;;17.08;64.72;101437.50;5032571;28;20041;-67
2022/10/16 10:13:43;;;;;;;9.13;1.88;;;;;;;17.19;64.75;101439.19;5029277;28;20366;-67
2022/10/16 10:16:08;;;;;;;6.85;1.80;;;;;;;17.18;64.60;101437.50;5029180;28;20109;-67
2022/10/16 10:18:34;;;;;;;5.45;1.63;;;;;;;17.05;63.86;101440.88;5033175;28;20484;-67
2022/10/16 10:21:01;;;;;;;10.60;2.17;;;;;;;17.00;64.58;101444.53;5028494;28;20048;-67
2022/10/16 10:23:28;;;;;;;12.65;2.03;;;;;;;16.97;65.09;101450.69;5025965;28;20091;-66
2022/10/16 10:26:08;;;;;;;10.40;2.20;;;;;;;16.96;65.54;101451.81;5025590;28;20032;-67
2022/10/16 10:29:01;;;;;;;9.52;2.00;;;;;;;17.08;65.26;101451.53;5028773;28;20033;-69
2022/10/16 10:31:41;;;;;;;9.23;2.20;;;;;;;17.28;64.79;101457.09;5029428;28;20089;-69
2022/10/16 10:34:33;;;;;;;11.40;1.85;;;;;;;17.25;64.92;101462.44;5030350;28;20504;-68
2022/10/16 10:37:21;;;;;;;9.77;1.80;;;;;;;17.13;63.79;101465.56;5030578;28;20393;-68
2022/10/16 10:40:15;;;;;;;9.52;2.50;;;;;;;17.06;64.83;101465.03;5021743;28;20782;-68
2022/10/16 10:43:09;;;;;;;9.57;2.17;;;;;;;17.24;64.64;101467.22;5028698;28;20033;-67
2022/10/16 10:45:52;;;;;;;11.43;2.03;;;;;;;17.41;63.53;101461.31;5025238;28;20038;-64
2022/10/16 10:48:38;;;;;;;7.32;2.15;;;;;;;17.59;62.85;101463.50;5027790;28;20045;-66
2022/10/16 10:51:28;;;;;;;7.28;2.15;;;;;;;17.71;63.16;101465.13;5023140;28;20129;-67
2022/10/16 10:54:24;;;;;;;10.95;2.00;;;;;;;17.73;62.81;101474.97;5028136;28;20036;-70
2022/10/16 10:56:59;;;;;;;13.63;2.65;;;;;;;17.74;61.17;101479.44;5025909;28;20072;-67
2022/10/16 10:59:52;;;;;;;8.32;2.13;;;;;;;17.76;60.96;101473.56;5030995;28;20030;-68
2022/10/16 11:02:40;;;;;;;9.52;2.53;;;;;;;17.66;61.10;101475.25;5022692;28;20068;-68
2022/10/16 11:05:25;;;;;;;10.70;2.33;;;;;;;17.52;62.33;101476.97;5026650;28;20052;-68
2022/10/16 11:07:58;;;;;;;11.75;2.38;;;;;;;17.51;62.27;101475.31;5025226;28;20108;-66
2022/10/16 11:10:58;;;;;;;13.27;2.58;;;;;;;17.46;62.36;101474.50;5023779;28;20036;-66
2022/10/16 11:13:42;;;;;;;11.82;2.53;;;;;;;17.34;61.42;101475.63;5026099;28;20046;-65
2022/10/16 11:16:23;;;;;;;10.55;2.10;;;;;;;17.29;61.77;101472.84;5029185;28;20679;-65
2022/10/16 11:19:10;;;;;;;13.07;2.30;;;;;;;17.27;62.03;101477.88;5029254;28;20049;-71
2022/10/16 11:21:43;;;;;;;9.07;2.47;;;;;;;17.26;61.07;101476.22;5030397;28;20048;-66
2022/10/16 11:24:21;;;;;;;13.52;2.50;;;;;;;17.18;61.31;101480.44;5030297;28;20030;-65
2022/10/16 11:26:49;;;;;;;10.63;2.45;;;;;;;17.12;61.26;101475.09;5026380;28;20697;-65
2022/10/16 11:29:23;;;;;;;9.30;2.17;;;;;;;17.23;60.98;101476.78;5029900;28;20472;-68
2022/10/16 11:31:55;;;;;;;10.40;2.08;;;;;;;17.28;60.65;101479.56;5026383;28;20731;-65
2022/10/16 11:34:42;;;;;;;13.27;2.42;;;;;;;17.29;60.65;101481.25;5025311;28;20434;-64
2022/10/16 11:37:17;;;;;;;8.48;2.00;;;;;;;17.38;60.90;101475.91;5033197;28;20029;-64